sensor_id;sensor_type;location;lat;lon;timestamp;pressure;altitude;pressure_sealevel;temperature;humidity
61710;BME280;47633;51.494;5.386;2023-03-25T00:01:57;100166.69;;;19.30;44.17
61710;BME280;47633;51.494;5.386;2023-03-25T00:04:22;100166.84;;;19.28;44.27
61710;BME280;47633;51.494;5.386;2023-03-25T00:06:53;100164.34;;;19.27;44.36
61710;BME280;47633;51.494;5.386;2023-03-25T00:09:18;100164.63;;;19.24;44.02
61710;BME280;47633;51.494;5.386;2023-03-25T00:11:44;100163.94;;;19.21;44.24
61710;BME280;47633;51.494;5.386;2023-03-25T00:14:10;100164.94;;;19.20;43.97
61710;BME280;47633;51.494;5.386;2023-03-25T00:16:36;100168.53;;;19.19;44.12
61710;BME280;47633;51.494;5.386;2023-03-25T00:19:01;100158.56;;;19.13;44.10
61710;BME280;47633;51.494;5.386;2023-03-25T00:21:27;100166.91;;;19.18;44.06
61710;BME280;47633;51.494;5.386;2023-03-25T00:23:52;100164.25;;;19.18;43.99
61710;BME280;47633;51.494;5.386;2023-03-25T00:26:17;100155.47;;;19.18;43.96
61710;BME280;47633;51.494;5.386;2023-03-25T00:28:43;100152.69;;;19.19;43.78
61710;BME280;47633;51.494;5.386;2023-03-25T00:31:13;100146.22;;;19.14;43.83
61710;BME280;47633;51.494;5.386;2023-03-25T00:33:38;100162.72;;;19.16;43.79
61710;BME280;47633;51.494;5.386;2023-03-25T00:36:06;100146.34;;;19.12;43.86
61710;BME280;47633;51.494;5.386;2023-03-25T00:38:33;100158.56;;;19.13;43.65
61710;BME280;47633;51.494;5.386;2023-03-25T00:41:15;100158.84;;;19.10;43.79
61710;BME280;47633;51.494;5.386;2023-03-25T00:43:42;100144.97;;;19.08;43.99
61710;BME280;47633;51.494;5.386;2023-03-25T00:46:07;100151.06;;;19.09;43.67
61710;BME280;47633;51.494;5.386;2023-03-25T00:48:32;100153.88;;;19.07;43.61
61710;BME280;47633;51.494;5.386;2023-03-25T00:50:59;100141.66;;;19.06;43.78
61710;BME280;47633;51.494;5.386;2023-03-25T00:53:31;100157.50;;;19.06;43.61
61710;BME280;47633;51.494;5.386;2023-03-25T00:55:57;100154.00;;;19.06;43.59
61710;BME280;47633;51.494;5.386;2023-03-25T00:58:22;100149.72;;;19.05;43.68
61710;BME280;47633;51.494;5.386;2023-03-25T01:00:47;100146.22;;;19.04;43.60
61710;BME280;47633;51.494;5.386;2023-03-25T01:03:13;100143.59;;;19.04;43.54
61710;BME280;47633;51.494;5.386;2023-03-25T01:05:39;100147.22;;;19.03;43.53
61710;BME280;47633;51.494;5.386;2023-03-25T01:08:07;100150.16;;;19.00;43.72
61710;BME280;47633;51.494;5.386;2023-03-25T01:10:35;100140.56;;;18.99;43.49
61710;BME280;47633;51.494;5.386;2023-03-25T01:13:01;100149.34;;;18.99;43.39
61710;BME280;47633;51.494;5.386;2023-03-25T01:15:26;100147.00;;;18.96;43.49
61710;BME280;47633;51.494;5.386;2023-03-25T01:17:51;100135.59;;;18.96;43.36
61710;BME280;47633;51.494;5.386;2023-03-25T01:20:16;100142.53;;;18.97;43.37
61710;BME280;47633;51.494;5.386;2023-03-25T01:22:42;100142.53;;;18.97;43.16
61710;BME280;47633;51.494;5.386;2023-03-25T01:25:07;100143.66;;;18.94;43.42
61710;BME280;47633;51.494;5.386;2023-03-25T01:27:32;100140.34;;;18.92;43.61
61710;BME280;47633;51.494;5.386;2023-03-25T01:29:58;100143.66;;;18.94;43.45
61710;BME280;47633;51.494;5.386;2023-03-25T01:32:23;100138.66;;;18.91;43.35
61710;BME280;47633;51.494;5.386;2023-03-25T01:34:48;100142.16;;;18.92;43.59
61710;BME280;47633;51.494;5.386;2023-03-25T01:37:14;100145.75;;;18.91;43.43
61710;BME280;47633;51.494;5.386;2023-03-25T01:39:39;100151.03;;;18.91;43.20
61710;BME280;47633;51.494;5.386;2023-03-25T01:42:04;100153.81;;;18.89;43.10
61710;BME280;47633;51.494;5.386;2023-03-25T01:46:58;100147.72;;;18.89;43.37
61710;BME280;47633;51.494;5.386;2023-03-25T01:49:29;100141.75;;;18.87;43.08
61710;BME280;47633;51.494;5.386;2023-03-25T01:52:01;100137.59;;;18.84;43.26
61710;BME280;47633;51.494;5.386;2023-03-25T01:54:27;100132.84;;;18.88;43.21
61710;BME280;47633;51.494;5.386;2023-03-25T01:56:53;100143.56;;;18.86;43.14
61710;BME280;47633;51.494;5.386;2023-03-25T01:59:22;100141.06;;;18.84;43.11
61710;BME280;47633;51.494;5.386;2023-03-25T02:01:49;100138.53;;;18.83;43.18
61710;BME280;47633;51.494;5.386;2023-03-25T02:04:20;100138.69;;;18.81;43.14
61710;BME280;47633;51.494;5.386;2023-03-25T02:06:51;100145.63;;;18.82;43.08
61710;BME280;47633;51.494;5.386;2023-03-25T02:09:20;100130.09;;;18.79;43.00
61710;BME280;47633;51.494;5.386;2023-03-25T02:11:46;100133.41;;;18.81;43.11
61710;BME280;47633;51.494;5.386;2023-03-25T02:14:13;100136.03;;;18.81;43.06
61710;BME280;47633;51.494;5.386;2023-03-25T02:16:46;100130.91;;;18.80;43.15
61710;BME280;47633;51.494;5.386;2023-03-25T02:19:42;100121.19;;;18.80;42.98
61710;BME280;47633;51.494;5.386;2023-03-25T02:25:23;100134.53;;;18.79;43.26
61710;BME280;47633;51.494;5.386;2023-03-25T02:28:12;100130.22;;;18.78;43.25
61710;BME280;47633;51.494;5.386;2023-03-25T02:41:23;100129.41;;;18.77;42.81
61710;BME280;47633;51.494;5.386;2023-03-25T02:46:32;100122.75;;;18.73;42.81
61710;BME280;47633;51.494;5.386;2023-03-25T02:49:18;100122.06;;;18.71;43.02
61710;BME280;47633;51.494;5.386;2023-03-25T02:52:14;100142.19;;;18.72;43.06
61710;BME280;47633;51.494;5.386;2023-03-25T02:54:42;100124.72;;;18.71;43.19
61710;BME280;47633;51.494;5.386;2023-03-25T02:57:11;100127.50;;;18.70;43.14
61710;BME280;47633;51.494;5.386;2023-03-25T02:59:38;100122.34;;;18.68;43.49
61710;BME280;47633;51.494;5.386;2023-03-25T03:02:09;100116.41;;;18.66;43.13
61710;BME280;47633;51.494;5.386;2023-03-25T03:04:52;100118.19;;;18.65;43.31
61710;BME280;47633;51.494;5.386;2023-03-25T03:07:38;100125.97;;;18.67;43.21
61710;BME280;47633;51.494;5.386;2023-03-25T03:10:24;100111.13;;;18.66;43.30
61710;BME280;47633;51.494;5.386;2023-03-25T03:18:42;100096.25;;;18.65;43.25
61710;BME280;47633;51.494;5.386;2023-03-25T03:21:15;100100.25;;;18.69;43.38
61710;BME280;47633;51.494;5.386;2023-03-25T03:24:12;100092.34;;;18.69;43.56
61710;BME280;47633;51.494;5.386;2023-03-25T03:29:51;100102.34;;;18.65;43.24
61710;BME280;47633;51.494;5.386;2023-03-25T03:32:25;100102.34;;;18.65;43.24
61710;BME280;47633;51.494;5.386;2023-03-25T03:35:04;100103.22;;;18.66;43.16
61710;BME280;47633;51.494;5.386;2023-03-25T03:37:35;100104.19;;;18.65;43.30
61710;BME280;47633;51.494;5.386;2023-03-25T03:40:06;100113.06;;;18.64;43.41
61710;BME280;47633;51.494;5.386;2023-03-25T03:42:36;100100.72;;;18.64;43.34
61710;BME280;47633;51.494;5.386;2023-03-25T03:45:14;100113.34;;;18.61;43.24
61710;BME280;47633;51.494;5.386;2023-03-25T03:47:48;100104.47;;;18.62;43.31
61710;BME280;47633;51.494;5.386;2023-03-25T03:50:28;100112.66;;;18.59;43.33
61710;BME280;47633;51.494;5.386;2023-03-25T03:53:14;100095.72;;;18.61;43.31
61710;BME280;47633;51.494;5.386;2023-03-25T03:56:01;100099.63;;;18.57;43.21
61710;BME280;47633;51.494;5.386;2023-03-25T03:58:35;100108.50;;;18.56;43.32
61710;BME280;47633;51.494;5.386;2023-03-25T04:03:38;100106.44;;;18.60;43.03
61710;BME280;47633;51.494;5.386;2023-03-25T04:06:24;100116.00;;;18.61;43.12
61710;BME280;47633;51.494;5.386;2023-03-25T04:08:54;100113.50;;;18.59;43.41
61710;BME280;47633;51.494;5.386;2023-03-25T04:11:27;100116.28;;;18.58;43.29
61710;BME280;47633;51.494;5.386;2023-03-25T04:13:58;100104.38;;;18.54;43.28
61710;BME280;47633;51.494;5.386;2023-03-25T04:16:24;100111.13;;;18.56;43.15
61710;BME280;47633;51.494;5.386;2023-03-25T04:18:50;100102.41;;;18.56;43.24
61710;BME280;47633;51.494;5.386;2023-03-25T04:21:18;100120.72;;;18.57;43.12
61710;BME280;47633;51.494;5.386;2023-03-25T04:23:43;100112.28;;;18.54;43.16
61710;BME280;47633;51.494;5.386;2023-03-25T04:26:11;100104.38;;;18.54;43.15
61710;BME280;47633;51.494;5.386;2023-03-25T04:28:37;100112.28;;;18.54;43.08
61710;BME280;47633;51.494;5.386;2023-03-25T04:31:11;100115.22;;;18.51;43.01
61710;BME280;47633;51.494;5.386;2023-03-25T04:33:40;100112.28;;;18.54;42.96
61710;BME280;47633;51.494;5.386;2023-03-25T04:36:06;100114.38;;;18.50;43.02
61710;BME280;47633;51.494;5.386;2023-03-25T04:38:32;100112.44;;;18.52;43.11
61710;BME280;47633;51.494;5.386;2023-03-25T04:40:57;100111.88;;;18.48;43.13
61710;BME280;47633;51.494;5.386;2023-03-25T04:43:22;100124.78;;;18.52;43.07
61710;BME280;47633;51.494;5.386;2023-03-25T04:45:48;100118.81;;;18.49;42.98
61710;BME280;47633;51.494;5.386;2023-03-25T04:48:23;100122.31;;;18.50;43.07
61710;BME280;47633;51.494;5.386;2023-03-25T04:50:50;100120.50;;;18.51;43.01
61710;BME280;47633;51.494;5.386;2023-03-25T04:53:16;100124.09;;;18.49;42.97
61710;BME280;47633;51.494;5.386;2023-03-25T04:55:41;100121.72;;;18.46;43.14
61710;BME280;47633;51.494;5.386;2023-03-25T04:58:13;100117.44;;;18.45;42.86
61710;BME280;47633;51.494;5.386;2023-03-25T05:00:40;100113.81;;;18.46;43.08
61710;BME280;47633;51.494;5.386;2023-03-25T05:03:05;100116.31;;;18.48;43.29
61710;BME280;47633;51.494;5.386;2023-03-25T05:05:31;100116.31;;;18.48;43.17
61710;BME280;47633;51.494;5.386;2023-03-25T05:07:56;100118.81;;;18.49;43.17
61710;BME280;47633;51.494;5.386;2023-03-25T05:10:24;100106.91;;;18.45;43.11
61710;BME280;47633;51.494;5.386;2023-03-25T05:12:59;100115.50;;;18.47;43.30
61710;BME280;47633;51.494;5.386;2023-03-25T05:15:25;100106.91;;;18.45;43.28
61710;BME280;47633;51.494;5.386;2023-03-25T05:17:50;100117.31;;;18.47;43.39
61710;BME280;47633;51.494;5.386;2023-03-25T05:20:16;100109.53;;;18.45;43.12
61710;BME280;47633;51.494;5.386;2023-03-25T05:22:41;100112.31;;;18.44;42.99
61710;BME280;47633;51.494;5.386;2023-03-25T05:25:08;100116.47;;;18.46;42.92
61710;BME280;47633;51.494;5.386;2023-03-25T05:27:35;100128.97;;;18.44;43.04
61710;BME280;47633;51.494;5.386;2023-03-25T05:30:01;100129.94;;;18.43;43.00
61710;BME280;47633;51.494;5.386;2023-03-25T05:32:27;100117.59;;;18.44;43.06
61710;BME280;47633;51.494;5.386;2023-03-25T05:35:05;100139.38;;;18.46;43.10
61710;BME280;47633;51.494;5.386;2023-03-25T05:37:31;100133.56;;;18.42;42.80
61710;BME280;47633;51.494;5.386;2023-03-25T05:39:56;100135.34;;;18.42;42.95
61710;BME280;47633;51.494;5.386;2023-03-25T05:42:22;100131.91;;;18.41;42.79
61710;BME280;47633;51.494;5.386;2023-03-25T05:44:48;100129.13;;;18.43;42.94
61710;BME280;47633;51.494;5.386;2023-03-25T05:47:18;100135.50;;;18.40;43.02
61710;BME280;47633;51.494;5.386;2023-03-25T05:49:45;100131.22;;;18.39;42.84
61710;BME280;47633;51.494;5.386;2023-03-25T05:52:10;100136.34;;;18.41;43.10
61710;BME280;47633;51.494;5.386;2023-03-25T05:54:35;100135.50;;;18.40;42.89
61710;BME280;47633;51.494;5.386;2023-03-25T05:57:05;100142.44;;;18.41;42.92
61710;BME280;47633;51.494;5.386;2023-03-25T05:59:31;100145.22;;;18.40;42.87
61710;BME280;47633;51.494;5.386;2023-03-25T06:01:57;100151.63;;;18.37;42.70
61710;BME280;47633;51.494;5.386;2023-03-25T06:04:23;100149.69;;;18.39;42.96
61710;BME280;47633;51.494;5.386;2023-03-25T06:06:48;100162.88;;;18.39;42.93
61710;BME280;47633;51.494;5.386;2023-03-25T06:09:14;100157.88;;;18.36;43.05
61710;BME280;47633;51.494;5.386;2023-03-25T06:11:42;100159.53;;;18.37;43.29
61710;BME280;47633;51.494;5.386;2023-03-25T06:14:07;100156.75;;;18.39;43.25
61710;BME280;47633;51.494;5.386;2023-03-25T06:16:33;100164.53;;;18.40;43.37
61710;BME280;47633;51.494;5.386;2023-03-25T06:18:59;100165.22;;;18.42;43.43
61710;BME280;47633;51.494;5.386;2023-03-25T06:21:30;100157.16;;;18.44;43.55
61710;BME280;47633;51.494;5.386;2023-03-25T06:23:59;100165.91;;;18.44;43.56
61710;BME280;47633;51.494;5.386;2023-03-25T06:26:26;100165.34;;;18.51;43.45
61710;BME280;47633;51.494;5.386;2023-03-25T06:28:51;100158.25;;;18.51;43.65
61710;BME280;47633;51.494;5.386;2023-03-25T06:31:19;100152.97;;;18.51;43.50
61710;BME280;47633;51.494;5.386;2023-03-25T06:33:48;100161.13;;;18.58;43.42
61710;BME280;47633;51.494;5.386;2023-03-25T06:36:15;100162.13;;;18.57;43.45
61710;BME280;47633;51.494;5.386;2023-03-25T06:38:43;100159.34;;;18.58;43.53
61710;BME280;47633;51.494;5.386;2023-03-25T06:41:09;100163.34;;;18.62;43.14
61710;BME280;47633;51.494;5.386;2023-03-25T06:43:35;100159.59;;;18.65;43.22
61710;BME280;47633;51.494;5.386;2023-03-25T06:46:00;100167.38;;;18.66;43.01
61710;BME280;47633;51.494;5.386;2023-03-25T06:48:26;100170.53;;;18.70;43.20
61710;BME280;47633;51.494;5.386;2023-03-25T06:50:51;100175.53;;;18.73;43.22
61710;BME280;47633;51.494;5.386;2023-03-25T06:53:17;100174.72;;;18.73;43.06
61710;BME280;47633;51.494;5.386;2023-03-25T06:55:42;100189.28;;;18.77;43.07
61710;BME280;47633;51.494;5.386;2023-03-25T06:58:09;100174.56;;;18.74;43.07
61710;BME280;47633;51.494;5.386;2023-03-25T07:00:35;100188.03;;;18.81;42.91
61710;BME280;47633;51.494;5.386;2023-03-25T07:03:01;100189.84;;;18.80;42.97
61710;BME280;47633;51.494;5.386;2023-03-25T07:05:27;100190.50;;;18.82;42.69
61710;BME280;47633;51.494;5.386;2023-03-25T07:07:52;100187.06;;;18.82;42.99
61710;BME280;47633;51.494;5.386;2023-03-25T07:10:18;100186.06;;;18.83;42.76
61710;BME280;47633;51.494;5.386;2023-03-25T07:12:43;100193.03;;;18.84;42.76
61710;BME280;47633;51.494;5.386;2023-03-25T07:15:09;100185.94;;;18.84;42.86
61710;BME280;47633;51.494;5.386;2023-03-25T07:17:34;100177.06;;;18.85;42.97
61710;BME280;47633;51.494;5.386;2023-03-25T07:19:59;100180.66;;;18.84;42.76
61710;BME280;47633;51.494;5.386;2023-03-25T07:22:25;100169.00;;;18.87;42.79
61710;BME280;47633;51.494;5.386;2023-03-25T07:24:51;100181.19;;;18.88;42.74
61710;BME280;47633;51.494;5.386;2023-03-25T07:27:17;100190.66;;;18.91;42.75
61710;BME280;47633;51.494;5.386;2023-03-25T07:29:42;100192.59;;;18.89;42.85
61710;BME280;47633;51.494;5.386;2023-03-25T07:32:07;100188.00;;;18.91;42.71
61710;BME280;47633;51.494;5.386;2023-03-25T07:34:33;100197.03;;;18.88;42.71
61710;BME280;47633;51.494;5.386;2023-03-25T07:36:58;100195.94;;;18.91;42.85
61710;BME280;47633;51.494;5.386;2023-03-25T07:39:24;100213.44;;;18.92;42.59
61710;BME280;47633;51.494;5.386;2023-03-25T07:41:53;100197.88;;;18.89;42.51
61710;BME280;47633;51.494;5.386;2023-03-25T07:44:18;100204.81;;;18.90;42.79
61710;BME280;47633;51.494;5.386;2023-03-25T07:46:47;100205.09;;;18.87;42.66
61710;BME280;47633;51.494;5.386;2023-03-25T07:49:14;100202.03;;;18.81;43.04
61710;BME280;47633;51.494;5.386;2023-03-25T07:51:40;100213.72;;;18.89;43.02
61710;BME280;47633;51.494;5.386;2023-03-25T07:54:06;100206.34;;;18.82;43.26
61710;BME280;47633;51.494;5.386;2023-03-25T07:56:31;100204.00;;;18.89;43.40
61710;BME280;47633;51.494;5.386;2023-03-25T07:58:56;100211.91;;;18.89;43.59
61710;BME280;47633;51.494;5.386;2023-03-25T08:01:22;100209.28;;;18.89;43.75
61710;BME280;47633;51.494;5.386;2023-03-25T08:03:47;100215.22;;;18.91;43.53
61710;BME280;47633;51.494;5.386;2023-03-25T08:06:12;100217.06;;;18.91;43.66
61710;BME280;47633;51.494;5.386;2023-03-25T08:08:38;100217.88;;;18.91;43.75
61710;BME280;47633;51.494;5.386;2023-03-25T08:11:04;100209.28;;;18.89;43.71
61710;BME280;47633;51.494;5.386;2023-03-25T08:13:29;100226.94;;;18.89;43.79
61710;BME280;47633;51.494;5.386;2023-03-25T08:15:55;100225.13;;;18.89;43.76
61710;BME280;47633;51.494;5.386;2023-03-25T08:18:20;100231.94;;;18.92;43.74
61710;BME280;47633;51.494;5.386;2023-03-25T08:20:48;100226.94;;;18.89;43.79
61710;BME280;47633;51.494;5.386;2023-03-25T08:23:15;100234.72;;;18.90;44.10
61710;BME280;47633;51.494;5.386;2023-03-25T08:25:43;100233.84;;;18.90;44.02
61710;BME280;47633;51.494;5.386;2023-03-25T08:28:08;100246.78;;;18.93;44.09
61710;BME280;47633;51.494;5.386;2023-03-25T08:30:35;100256.50;;;18.92;44.28
61710;BME280;47633;51.494;5.386;2023-03-25T08:33:06;100250.25;;;18.93;44.20
61710;BME280;47633;51.494;5.386;2023-03-25T08:35:33;100247.75;;;18.92;44.39
61710;BME280;47633;51.494;5.386;2023-03-25T08:37:59;100245.41;;;18.89;44.46
61710;BME280;47633;51.494;5.386;2023-03-25T08:40:26;100254.56;;;18.94;44.31
61710;BME280;47633;51.494;5.386;2023-03-25T08:42:51;100247.75;;;18.92;44.62
61710;BME280;47633;51.494;5.386;2023-03-25T08:45:17;100248.44;;;18.94;44.51
61710;BME280;47633;51.494;5.386;2023-03-25T08:47:43;100260.41;;;18.98;44.25
61710;BME280;47633;51.494;5.386;2023-03-25T08:50:09;100256.09;;;18.97;44.53
61710;BME280;47633;51.494;5.386;2023-03-25T08:52:35;100253.59;;;18.95;44.53
61710;BME280;47633;51.494;5.386;2023-03-25T08:55:00;100251.91;;;18.94;44.40
61710;BME280;47633;51.494;5.386;2023-03-25T08:57:26;100256.22;;;18.95;44.40
61710;BME280;47633;51.494;5.386;2023-03-25T08:59:51;100257.03;;;18.96;44.46
61710;BME280;47633;51.494;5.386;2023-03-25T09:02:17;100252.91;;;18.93;44.57
61710;BME280;47633;51.494;5.386;2023-03-25T09:04:42;100248.31;;;18.95;44.42
61710;BME280;47633;51.494;5.386;2023-03-25T09:07:07;100253.44;;;18.97;44.63
61710;BME280;47633;51.494;5.386;2023-03-25T09:09:38;100250.94;;;18.95;44.44
61710;BME280;47633;51.494;5.386;2023-03-25T09:12:04;100254.97;;;18.99;44.62
61710;BME280;47633;51.494;5.386;2023-03-25T09:14:29;100247.34;;;18.96;44.68
61710;BME280;47633;51.494;5.386;2023-03-25T09:16:55;100250.66;;;18.98;44.69
61710;BME280;47633;51.494;5.386;2023-03-25T09:19:20;100245.66;;;18.95;44.77
61710;BME280;47633;51.494;5.386;2023-03-25T09:21:46;100244.41;;;18.99;44.52
61710;BME280;47633;51.494;5.386;2023-03-25T09:24:11;100242.44;;;19.01;44.49
61710;BME280;47633;51.494;5.386;2023-03-25T09:26:38;100254.13;;;18.99;44.59
61710;BME280;47633;51.494;5.386;2023-03-25T09:29:03;100246.19;;;18.99;44.67
61710;BME280;47633;51.494;5.386;2023-03-25T09:31:28;100244.56;;;18.98;44.48
61710;BME280;47633;51.494;5.386;2023-03-25T09:33:54;100256.19;;;19.05;44.64
61710;BME280;47633;51.494;5.386;2023-03-25T09:36:20;100254.78;;;19.11;44.47
61710;BME280;47633;51.494;5.386;2023-03-25T09:38:45;100253.88;;;19.20;44.27
61710;BME280;47633;51.494;5.386;2023-03-25T09:41:25;100259.16;;;19.20;44.56
61710;BME280;47633;51.494;5.386;2023-03-25T09:46:25;100260.06;;;19.11;44.28
61710;BME280;47633;51.494;5.386;2023-03-25T09:48:53;100266.19;;;19.11;44.40
61710;BME280;47633;51.494;5.386;2023-03-25T09:51:28;100263.00;;;19.08;44.29
61710;BME280;47633;51.494;5.386;2023-03-25T09:54:01;100268.81;;;19.11;44.33
61710;BME280;47633;51.494;5.386;2023-03-25T09:56:31;100263.53;;;19.11;44.16
61710;BME280;47633;51.494;5.386;2023-03-25T09:59:06;100267.56;;;19.06;44.16
61710;BME280;47633;51.494;5.386;2023-03-25T10:09:49;100256.19;;;19.05;44.17
61710;BME280;47633;51.494;5.386;2023-03-25T10:23:46;100259.66;;;19.06;43.99
61710;BME280;47633;51.494;5.386;2023-03-25T10:26:23;100266.47;;;19.08;44.07
61710;BME280;47633;51.494;5.386;2023-03-25T10:28:55;100260.34;;;19.08;44.25
61710;BME280;47633;51.494;5.386;2023-03-25T10:31:23;100260.50;;;19.06;44.09
61710;BME280;47633;51.494;5.386;2023-03-25T10:33:53;100259.25;;;19.00;44.05
61710;BME280;47633;51.494;5.386;2023-03-25T10:36:30;100275.50;;;19.06;43.79
61710;BME280;47633;51.494;5.386;2023-03-25T10:38:58;100258.69;;;19.07;44.02
61710;BME280;47633;51.494;5.386;2023-03-25T10:41:30;100277.84;;;19.09;43.86
61710;BME280;47633;51.494;5.386;2023-03-25T10:43:59;100263.97;;;19.07;43.99
61710;BME280;47633;51.494;5.386;2023-03-25T10:46:53;100268.13;;;19.09;43.99
61710;BME280;47633;51.494;5.386;2023-03-25T10:49:22;100269.25;;;19.07;43.86
61710;BME280;47633;51.494;5.386;2023-03-25T10:51:50;100263.44;;;19.03;43.87
61710;BME280;47633;51.494;5.386;2023-03-25T10:54:26;100271.06;;;19.06;43.94
61710;BME280;47633;51.494;5.386;2023-03-25T10:56:54;100281.63;;;19.06;44.10
61710;BME280;47633;51.494;5.386;2023-03-25T10:59:28;100282.84;;;19.12;43.90
61710;BME280;47633;51.494;5.386;2023-03-25T11:01:56;100252.28;;;19.09;44.09
61710;BME280;47633;51.494;5.386;2023-03-25T11:04:28;100268.81;;;19.11;43.90
61710;BME280;47633;51.494;5.386;2023-03-25T11:06:56;100264.63;;;19.09;43.86
61710;BME280;47633;51.494;5.386;2023-03-25T11:09:27;100276.06;;;19.09;44.01
61710;BME280;47633;51.494;5.386;2023-03-25T11:11:55;100271.47;;;19.11;44.16
61710;BME280;47633;51.494;5.386;2023-03-25T11:14:25;100287.31;;;19.11;44.01
61710;BME280;47633;51.494;5.386;2023-03-25T11:16:58;100290.09;;;19.10;43.77
61710;BME280;47633;51.494;5.386;2023-03-25T11:19:27;100287.84;;;19.15;44.28
61710;BME280;47633;51.494;5.386;2023-03-25T11:21:59;100290.63;;;19.13;45.27
61710;BME280;47633;51.494;5.386;2023-03-25T11:24:30;100296.75;;;19.14;45.60
61710;BME280;47633;51.494;5.386;2023-03-25T11:26:56;100281.06;;;19.12;45.91
61710;BME280;47633;51.494;5.386;2023-03-25T11:29:25;100289.81;;;19.13;46.16
61710;BME280;47633;51.494;5.386;2023-03-25T11:31:57;100298.25;;;19.16;45.95
61710;BME280;47633;51.494;5.386;2023-03-25T11:34:23;100298.97;;;19.18;45.86
61710;BME280;47633;51.494;5.386;2023-03-25T11:39:38;100296.47;;;19.17;45.77
61710;BME280;47633;51.494;5.386;2023-03-25T11:42:25;100298.97;;;19.18;45.70
61710;BME280;47633;51.494;5.386;2023-03-25T11:44:54;100296.34;;;19.18;45.37
61710;BME280;47633;51.494;5.386;2023-03-25T11:47:41;100288.22;;;19.20;45.71
61710;BME280;47633;51.494;5.386;2023-03-25T11:50:18;100291.59;;;19.22;45.59
61710;BME280;47633;51.494;5.386;2023-03-25T11:52:45;100294.91;;;19.24;45.39
61710;BME280;47633;51.494;5.386;2023-03-25T11:55:26;100289.19;;;19.29;45.08
61710;BME280;47633;51.494;5.386;2023-03-25T11:57:54;100293.06;;;19.34;44.83
61710;BME280;47633;51.494;5.386;2023-03-25T12:02:58;100286.72;;;19.45;44.85
61710;BME280;47633;51.494;5.386;2023-03-25T12:05:24;100303.81;;;19.51;44.56
61710;BME280;47633;51.494;5.386;2023-03-25T12:07:51;100295.75;;;19.52;44.47
61710;BME280;47633;51.494;5.386;2023-03-25T12:13:00;100290.47;;;19.52;44.48
61710;BME280;47633;51.494;5.386;2023-03-25T12:37:11;100303.53;;;19.54;44.79
61710;BME280;47633;51.494;5.386;2023-03-25T12:39:48;100301.03;;;19.52;44.64
61710;BME280;47633;51.494;5.386;2023-03-25T12:42:29;100301.63;;;19.46;44.58
61710;BME280;47633;51.494;5.386;2023-03-25T12:47:42;100308.31;;;19.40;44.70
61710;BME280;47633;51.494;5.386;2023-03-25T12:52:58;100303.16;;;19.39;44.70
61710;BME280;47633;51.494;5.386;2023-03-25T13:06:50;100317.66;;;19.35;44.94
61710;BME280;47633;51.494;5.386;2023-03-25T13:11:48;100328.63;;;19.40;44.89
61710;BME280;47633;51.494;5.386;2023-03-25T13:14:26;100312.09;;;19.38;45.17
61710;BME280;47633;51.494;5.386;2023-03-25T13:16:57;100309.59;;;19.36;45.54
61710;BME280;47633;51.494;5.386;2023-03-25T13:19:26;100312.09;;;19.38;45.22
61710;BME280;47633;51.494;5.386;2023-03-25T13:21:58;100312.25;;;19.36;45.27
61710;BME280;47633;51.494;5.386;2023-03-25T13:24:47;100309.59;;;19.36;45.34
61710;BME280;47633;51.494;5.386;2023-03-25T13:27:16;100300.13;;;19.34;45.43
61710;BME280;47633;51.494;5.386;2023-03-25T13:29:43;100292.50;;;19.31;45.33
61710;BME280;47633;51.494;5.386;2023-03-25T13:32:17;100301.44;;;19.30;45.37
61710;BME280;47633;51.494;5.386;2023-03-25T13:34:52;100303.63;;;19.34;45.21
61710;BME280;47633;51.494;5.386;2023-03-25T13:37:35;100313.34;;;19.34;45.28
61710;BME280;47633;51.494;5.386;2023-03-25T13:40:16;100303.06;;;19.31;45.12
61710;BME280;47633;51.494;5.386;2023-03-25T13:45:20;100330.72;;;19.36;45.06
61710;BME280;47633;51.494;5.386;2023-03-25T13:50:31;100315.69;;;19.37;45.00
61710;BME280;47633;51.494;5.386;2023-03-25T13:53:31;100340.47;;;19.36;45.20
61710;BME280;47633;51.494;5.386;2023-03-25T14:04:01;100334.78;;;19.31;45.39
61710;BME280;47633;51.494;5.386;2023-03-25T14:09:52;100333.38;;;19.36;45.20
61710;BME280;47633;51.494;5.386;2023-03-25T14:12:34;100324.44;;;19.37;45.05
61710;BME280;47633;51.494;5.386;2023-03-25T14:15:13;100310.84;;;19.32;45.22
61710;BME280;47633;51.494;5.386;2023-03-25T14:17:39;100334.88;;;19.39;45.09
61710;BME280;47633;51.494;5.386;2023-03-25T14:20:08;100313.06;;;19.37;44.92
61710;BME280;47633;51.494;5.386;2023-03-25T14:22:39;100314.75;;;19.38;44.94
61710;BME280;47633;51.494;5.386;2023-03-25T14:25:17;100320.56;;;19.42;44.63
61710;BME280;47633;51.494;5.386;2023-03-25T14:27:47;100309.03;;;19.43;44.82
61710;BME280;47633;51.494;5.386;2023-03-25T14:30:21;100318.63;;;19.34;44.58
61710;BME280;47633;51.494;5.386;2023-03-25T14:32:48;100322.00;;;19.36;44.54
61710;BME280;47633;51.494;5.386;2023-03-25T14:43:22;100329.19;;;19.34;44.37
61710;BME280;47633;51.494;5.386;2023-03-25T14:49:21;100331.84;;;19.34;43.82
61710;BME280;47633;51.494;5.386;2023-03-25T14:51:41;100337.28;;;19.32;44.09
61710;BME280;47633;51.494;5.386;2023-03-25T14:54:20;100331.84;;;19.34;43.73
61710;BME280;47633;51.494;5.386;2023-03-25T14:57:13;100338.22;;;19.41;43.75
61710;BME280;47633;51.494;5.386;2023-03-25T14:59:48;100321.53;;;19.40;43.65
61710;BME280;47633;51.494;5.386;2023-03-25T15:02:18;100345.44;;;19.39;43.76
61710;BME280;47633;51.494;5.386;2023-03-25T15:04:51;100335.88;;;19.38;43.24
61710;BME280;47633;51.494;5.386;2023-03-25T15:07:19;100342.13;;;19.37;43.50
61710;BME280;47633;51.494;5.386;2023-03-25T15:10:04;100333.38;;;19.36;43.41
61710;BME280;47633;51.494;5.386;2023-03-25T15:12:30;100352.97;;;19.34;42.78